sensor_id;sensor_type;location;lat;lon;timestamp;temperature;humidity
18281;DHT22;9266;51.132;17.062;2023-11-21T00:01:20;8.50;99.90
18281;DHT22;9266;51.132;17.062;2023-11-21T00:03:47;8.40;99.90
18281;DHT22;9266;51.132;17.062;2023-11-21T00:06:14;8.40;99.90
18281;DHT22;9266;51.132;17.062;2023-11-21T00:08:41;8.40;99.90
18281;DHT22;9266;51.132;17.062;2023-11-21T00:11:09;8.40;99.90
18281;DHT22;9266;51.132;17.062;2023-11-21T00:13:36;8.40;99.90
18281;DHT22;9266;51.132;17.062;2023-11-21T00:16:03;8.40;99.90
18281;DHT22;9266;51.132;17.062;2023-11-21T00:18:31;8.40;99.90
18281;DHT22;9266;51.132;17.062;2023-11-21T00:20:57;8.40;99.90
18281;DHT22;9266;51.132;17.062;2023-11-21T00:23:24;8.40;99.90
18281;DHT22;9266;51.132;17.062;2023-11-21T00:25:51;8.40;99.90
18281;DHT22;9266;51.132;17.062;2023-11-21T00:28:20;8.40;99.90
18281;DHT22;9266;51.132;17.062;2023-11-21T00:30:47;8.40;99.90
18281;DHT22;9266;51.132;17.062;2023-11-21T00:33:14;8.30;99.90
18281;DHT22;9266;51.132;17.062;2023-11-21T00:35:41;8.30;99.90
18281;DHT22;9266;51.132;17.062;2023-11-21T00:38:08;8.30;99.90
18281;DHT22;9266;51.132;17.062;2023-11-21T00:40:35;8.30;99.90
18281;DHT22;9266;51.132;17.062;2023-11-21T00:43:03;8.30;99.90
18281;DHT22;9266;51.132;17.062;2023-11-21T00:45:32;8.20;99.90
18281;DHT22;9266;51.132;17.062;2023-11-21T00:47:59;8.20;99.90
18281;DHT22;9266;51.132;17.062;2023-11-21T00:50:26;8.30;99.90
18281;DHT22;9266;51.132;17.062;2023-11-21T00:52:53;8.20;99.90
18281;DHT22;9266;51.132;17.062;2023-11-21T00:55:20;8.20;99.90
18281;DHT22;9266;51.132;17.062;2023-11-21T00:57:46;8.20;99.90
18281;DHT22;9266;51.132;17.062;2023-11-21T01:00:14;8.20;99.90
18281;DHT22;9266;51.132;17.062;2023-11-21T01:02:44;8.20;99.90
18281;DHT22;9266;51.132;17.062;2023-11-21T01:05:11;8.20;99.90
18281;DHT22;9266;51.132;17.062;2023-11-21T01:07:38;8.20;99.90
18281;DHT22;9266;51.132;17.062;2023-11-21T01:10:05;8.20;99.90
18281;DHT22;9266;51.132;17.062;2023-11-21T01:12:34;8.20;99.90
18281;DHT22;9266;51.132;17.062;2023-11-21T01:15:01;8.20;99.90
18281;DHT22;9266;51.132;17.062;2023-11-21T01:17:28;8.20;99.90
18281;DHT22;9266;51.132;17.062;2023-11-21T01:19:56;8.20;99.90
18281;DHT22;9266;51.132;17.062;2023-11-21T01:22:24;8.20;99.90
18281;DHT22;9266;51.132;17.062;2023-11-21T01:24:52;8.20;99.90
18281;DHT22;9266;51.132;17.062;2023-11-21T01:27:19;8.20;99.90
18281;DHT22;9266;51.132;17.062;2023-11-21T01:29:46;8.20;99.90
18281;DHT22;9266;51.132;17.062;2023-11-21T01:32:13;8.20;99.90
18281;DHT22;9266;51.132;17.062;2023-11-21T01:34:40;8.20;99.90
18281;DHT22;9266;51.132;17.062;2023-11-21T01:37:08;8.20;99.90
18281;DHT22;9266;51.132;17.062;2023-11-21T01:39:37;8.20;99.90
18281;DHT22;9266;51.132;17.062;2023-11-21T01:42:05;8.20;99.90
18281;DHT22;9266;51.132;17.062;2023-11-21T01:44:33;8.20;99.90
18281;DHT22;9266;51.132;17.062;2023-11-21T01:47:00;8.20;99.90
18281;DHT22;9266;51.132;17.062;2023-11-21T01:49:30;8.20;99.90
18281;DHT22;9266;51.132;17.062;2023-11-21T01:51:58;8.20;99.90
18281;DHT22;9266;51.132;17.062;2023-11-21T01:54:27;8.20;99.90
18281;DHT22;9266;51.132;17.062;2023-11-21T01:56:57;8.10;99.90
18281;DHT22;9266;51.132;17.062;2023-11-21T01:59:30;8.20;99.90
18281;DHT22;9266;51.132;17.062;2023-11-21T02:01:59;8.10;99.90
18281;DHT22;9266;51.132;17.062;2023-11-21T02:04:26;8.10;99.90
18281;DHT22;9266;51.132;17.062;2023-11-21T02:06:53;8.10;99.90
18281;DHT22;9266;51.132;17.062;2023-11-21T02:09:24;8.10;99.90
18281;DHT22;9266;51.132;17.062;2023-11-21T02:11:54;8.10;99.90
18281;DHT22;9266;51.132;17.062;2023-11-21T02:14:21;8.10;99.90
18281;DHT22;9266;51.132;17.062;2023-11-21T02:16:48;8.10;99.90
18281;DHT22;9266;51.132;17.062;2023-11-21T02:19:19;8.10;99.90
18281;DHT22;9266;51.132;17.062;2023-11-21T02:21:49;8.00;99.90
18281;DHT22;9266;51.132;17.062;2023-11-21T02:24:19;8.10;99.90
18281;DHT22;9266;51.132;17.062;2023-11-21T02:26:47;8.00;99.90
18281;DHT22;9266;51.132;17.062;2023-11-21T02:29:14;8.10;99.90
18281;DHT22;9266;51.132;17.062;2023-11-21T02:31:44;7.30;99.90
18281;DHT22;9266;51.132;17.062;2023-11-21T02:34:14;8.00;99.90
18281;DHT22;9266;51.132;17.062;2023-11-21T02:36:42;8.10;99.90
18281;DHT22;9266;51.132;17.062;2023-11-21T02:39:09;8.00;99.90
18281;DHT22;9266;51.132;17.062;2023-11-21T02:41:37;8.00;99.90
18281;DHT22;9266;51.132;17.062;2023-11-21T02:44:05;8.10;99.90
18281;DHT22;9266;51.132;17.062;2023-11-21T02:46:33;8.10;99.90
18281;DHT22;9266;51.132;17.062;2023-11-21T02:49:00;8.00;99.90
18281;DHT22;9266;51.132;17.062;2023-11-21T02:51:27;8.10;99.90
18281;DHT22;9266;51.132;17.062;2023-11-21T02:53:54;8.00;99.90
18281;DHT22;9266;51.132;17.062;2023-11-21T02:56:24;8.10;99.90
18281;DHT22;9266;51.132;17.062;2023-11-21T02:58:55;8.00;99.90
18281;DHT22;9266;51.132;17.062;2023-11-21T03:01:23;8.10;99.90
18281;DHT22;9266;51.132;17.062;2023-11-21T03:03:50;8.10;99.90
18281;DHT22;9266;51.132;17.062;2023-11-21T03:06:18;8.10;99.90
18281;DHT22;9266;51.132;17.062;2023-11-21T03:08:45;8.20;99.90
18281;DHT22;9266;51.132;17.062;2023-11-21T03:11:12;8.10;99.90
18281;DHT22;9266;51.132;17.062;2023-11-21T03:13:39;8.10;99.90
18281;DHT22;9266;51.132;17.062;2023-11-21T03:16:09;8.10;99.90
18281;DHT22;9266;51.132;17.062;2023-11-21T03:18:36;8.10;99.90
18281;DHT22;9266;51.132;17.062;2023-11-21T03:21:03;8.20;99.90
18281;DHT22;9266;51.132;17.062;2023-11-21T03:23:30;8.10;99.90
18281;DHT22;9266;51.132;17.062;2023-11-21T03:25:57;8.10;99.90
18281;DHT22;9266;51.132;17.062;2023-11-21T03:28:25;8.10;99.90
18281;DHT22;9266;51.132;17.062;2023-11-21T03:30:52;8.10;99.90
18281;DHT22;9266;51.132;17.062;2023-11-21T03:33:20;8.20;99.90
18281;DHT22;9266;51.132;17.062;2023-11-21T03:35:48;8.20;99.90
18281;DHT22;9266;51.132;17.062;2023-11-21T03:38:15;8.10;99.90
18281;DHT22;9266;51.132;17.062;2023-11-21T03:40:42;8.10;99.90
18281;DHT22;9266;51.132;17.062;2023-11-21T03:43:09;8.10;99.90
18281;DHT22;9266;51.132;17.062;2023-11-21T03:45:36;8.10;99.90
18281;DHT22;9266;51.132;17.062;2023-11-21T03:48:06;8.20;99.90
18281;DHT22;9266;51.132;17.062;2023-11-21T03:50:34;8.10;99.90
18281;DHT22;9266;51.132;17.062;2023-11-21T03:53:01;8.20;99.90
18281;DHT22;9266;51.132;17.062;2023-11-21T03:55:28;8.10;99.90
18281;DHT22;9266;51.132;17.062;2023-11-21T03:57:56;8.10;99.90
18281;DHT22;9266;51.132;17.062;2023-11-21T04:00:24;8.20;99.90
18281;DHT22;9266;51.132;17.062;2023-11-21T04:02:52;8.20;99.90
18281;DHT22;9266;51.132;17.062;2023-11-21T04:05:20;8.20;99.90
18281;DHT22;9266;51.132;17.062;2023-11-21T04:07:48;8.20;99.90
18281;DHT22;9266;51.132;17.062;2023-11-21T04:10:15;8.20;99.90
18281;DHT22;9266;51.132;17.062;2023-11-21T04:12:42;8.20;99.90
18281;DHT22;9266;51.132;17.062;2023-11-21T04:15:11;8.20;99.90
18281;DHT22;9266;51.132;17.062;2023-11-21T04:17:38;8.20;99.90
18281;DHT22;9266;51.132;17.062;2023-11-21T04:20:07;8.20;99.90
18281;DHT22;9266;51.132;17.062;2023-11-21T04:22:36;8.20;99.90
18281;DHT22;9266;51.132;17.062;2023-11-21T04:25:08;8.20;99.90
18281;DHT22;9266;51.132;17.062;2023-11-21T04:27:35;8.10;99.90
18281;DHT22;9266;51.132;17.062;2023-11-21T04:30:02;8.20;99.90
18281;DHT22;9266;51.132;17.062;2023-11-21T04:32:29;8.10;99.90
18281;DHT22;9266;51.132;17.062;2023-11-21T04:34:56;8.10;99.90
18281;DHT22;9266;51.132;17.062;2023-11-21T04:37:25;8.10;99.90
18281;DHT22;9266;51.132;17.062;2023-11-21T04:39:52;8.10;99.90
18281;DHT22;9266;51.132;17.062;2023-11-21T04:42:20;8.10;99.90
18281;DHT22;9266;51.132;17.062;2023-11-21T04:44:47;8.10;99.90
18281;DHT22;9266;51.132;17.062;2023-11-21T04:47:14;6.70;99.90
18281;DHT22;9266;51.132;17.062;2023-11-21T04:49:42;8.00;99.90
18281;DHT22;9266;51.132;17.062;2023-11-21T04:52:09;8.00;99.90
18281;DHT22;9266;51.132;17.062;2023-11-21T04:54:36;8.00;99.90
18281;DHT22;9266;51.132;17.062;2023-11-21T04:57:03;8.00;99.90
18281;DHT22;9266;51.132;17.062;2023-11-21T04:59:34;7.90;99.90
18281;DHT22;9266;51.132;17.062;2023-11-21T05:02:01;7.90;99.90
18281;DHT22;9266;51.132;17.062;2023-11-21T05:04:28;7.90;99.90
18281;DHT22;9266;51.132;17.062;2023-11-21T05:06:55;7.90;99.90
18281;DHT22;9266;51.132;17.062;2023-11-21T05:09:22;7.90;99.90
18281;DHT22;9266;51.132;17.062;2023-11-21T05:11:49;7.90;99.90
18281;DHT22;9266;51.132;17.062;2023-11-21T05:14:16;7.90;99.90
18281;DHT22;9266;51.132;17.062;2023-11-21T05:16:45;7.90;99.90
18281;DHT22;9266;51.132;17.062;2023-11-21T05:19:12;8.00;99.90
18281;DHT22;9266;51.132;17.062;2023-11-21T05:21:39;7.90;99.90
18281;DHT22;9266;51.132;17.062;2023-11-21T05:24:07;8.00;99.90
18281;DHT22;9266;51.132;17.062;2023-11-21T05:26:34;8.00;99.90
18281;DHT22;9266;51.132;17.062;2023-11-21T05:29:01;8.00;99.90
18281;DHT22;9266;51.132;17.062;2023-11-21T05:31:28;8.00;99.90
18281;DHT22;9266;51.132;17.062;2023-11-21T05:33:57;8.00;99.90
18281;DHT22;9266;51.132;17.062;2023-11-21T05:36:24;8.00;99.90
18281;DHT22;9266;51.132;17.062;2023-11-21T05:38:51;8.00;99.90
18281;DHT22;9266;51.132;17.062;2023-11-21T05:41:18;8.00;99.90
18281;DHT22;9266;51.132;17.062;2023-11-21T05:43:44;8.00;99.90
18281;DHT22;9266;51.132;17.062;2023-11-21T05:46:11;8.00;99.90
18281;DHT22;9266;51.132;17.062;2023-11-21T05:48:39;8.00;99.90
18281;DHT22;9266;51.132;17.062;2023-11-21T05:51:07;8.00;99.90
18281;DHT22;9266;51.132;17.062;2023-11-21T05:53:34;8.00;99.90
18281;DHT22;9266;51.132;17.062;2023-11-21T05:56:01;8.00;99.90
18281;DHT22;9266;51.132;17.062;2023-11-21T05:58:29;8.00;99.90
18281;DHT22;9266;51.132;17.062;2023-11-21T06:00:56;8.00;99.90
18281;DHT22;9266;51.132;17.062;2023-11-21T06:03:23;8.00;99.90
18281;DHT22;9266;51.132;17.062;2023-11-21T06:05:50;7.90;99.90
18281;DHT22;9266;51.132;17.062;2023-11-21T06:08:19;8.00;99.90
18281;DHT22;9266;51.132;17.062;2023-11-21T06:10:46;8.00;99.90
18281;DHT22;9266;51.132;17.062;2023-11-21T06:13:14;8.00;99.90
18281;DHT22;9266;51.132;17.062;2023-11-21T06:15:41;8.00;99.90
18281;DHT22;9266;51.132;17.062;2023-11-21T06:18:08;8.00;99.90
18281;DHT22;9266;51.132;17.062;2023-11-21T06:20:36;7.90;99.90
18281;DHT22;9266;51.132;17.062;2023-11-21T06:23:04;8.00;99.90
18281;DHT22;9266;51.132;17.062;2023-11-21T06:25:32;8.00;99.90
18281;DHT22;9266;51.132;17.062;2023-11-21T06:28:01;8.00;99.90
18281;DHT22;9266;51.132;17.062;2023-11-21T06:30:29;8.00;99.90
18281;DHT22;9266;51.132;17.062;2023-11-21T06:32:56;8.00;99.90
18281;DHT22;9266;51.132;17.062;2023-11-21T06:35:23;8.00;99.90
18281;DHT22;9266;51.132;17.062;2023-11-21T06:37:50;8.00;99.90
18281;DHT22;9266;51.132;17.062;2023-11-21T06:40:17;8.00;99.90
18281;DHT22;9266;51.132;17.062;2023-11-21T06:42:46;8.10;99.90
18281;DHT22;9266;51.132;17.062;2023-11-21T06:45:13;8.00;99.90
18281;DHT22;9266;51.132;17.062;2023-11-21T06:47:40;8.00;99.90
18281;DHT22;9266;51.132;17.062;2023-11-21T06:50:08;7.50;99.90
18281;DHT22;9266;51.132;17.062;2023-11-21T06:52:35;8.00;99.90
18281;DHT22;9266;51.132;17.062;2023-11-21T06:55:02;8.00;99.90
18281;DHT22;9266;51.132;17.062;2023-11-21T06:57:30;8.00;99.90
18281;DHT22;9266;51.132;17.062;2023-11-21T06:59:59;8.00;99.90
18281;DHT22;9266;51.132;17.062;2023-11-21T07:02:26;8.00;99.90
18281;DHT22;9266;51.132;17.062;2023-11-21T07:04:53;8.10;99.90
18281;DHT22;9266;51.132;17.062;2023-11-21T07:07:21;8.10;99.90
18281;DHT22;9266;51.132;17.062;2023-11-21T07:09:48;8.10;99.90
18281;DHT22;9266;51.132;17.062;2023-11-21T07:12:14;8.10;99.90
18281;DHT22;9266;51.132;17.062;2023-11-21T07:14:41;8.10;99.90
18281;DHT22;9266;51.132;17.062;2023-11-21T07:17:11;8.10;99.90
18281;DHT22;9266;51.132;17.062;2023-11-21T07:19:38;8.10;99.90
18281;DHT22;9266;51.132;17.062;2023-11-21T07:22:07;8.10;99.90
18281;DHT22;9266;51.132;17.062;2023-11-21T07:24:34;8.10;99.90
18281;DHT22;9266;51.132;17.062;2023-11-21T07:27:02;8.10;99.90
18281;DHT22;9266;51.132;17.062;2023-11-21T07:29:29;8.20;99.90
18281;DHT22;9266;51.132;17.062;2023-11-21T07:31:57;8.10;99.90
18281;DHT22;9266;51.132;17.062;2023-11-21T07:34:25;8.10;99.90
18281;DHT22;9266;51.132;17.062;2023-11-21T07:36:52;8.10;99.90
18281;DHT22;9266;51.132;17.062;2023-11-21T07:39:19;8.10;99.90
18281;DHT22;9266;51.132;17.062;2023-11-21T07:41:46;8.10;99.90
18281;DHT22;9266;51.132;17.062;2023-11-21T07:44:16;8.10;99.90
18281;DHT22;9266;51.132;17.062;2023-11-21T07:46:43;8.10;99.90
18281;DHT22;9266;51.132;17.062;2023-11-21T07:49:11;8.20;99.90
18281;DHT22;9266;51.132;17.062;2023-11-21T07:51:41;8.20;99.90
18281;DHT22;9266;51.132;17.062;2023-11-21T07:54:09;8.20;99.90
18281;DHT22;9266;51.132;17.062;2023-11-21T07:56:36;8.20;99.90
18281;DHT22;9266;51.132;17.062;2023-11-21T07:59:03;8.30;99.90
18281;DHT22;9266;51.132;17.062;2023-11-21T08:01:30;8.30;99.90
18281;DHT22;9266;51.132;17.062;2023-11-21T08:03:57;8.20;99.90
18281;DHT22;9266;51.132;17.062;2023-11-21T08:06:27;8.20;99.90
18281;DHT22;9266;51.132;17.062;2023-11-21T08:08:55;8.30;99.90
18281;DHT22;9266;51.132;17.062;2023-11-21T08:11:22;8.20;99.90
18281;DHT22;9266;51.132;17.062;2023-11-21T08:13:49;8.30;99.90
18281;DHT22;9266;51.132;17.062;2023-11-21T08:16:16;8.20;99.90
18281;DHT22;9266;51.132;17.062;2023-11-21T08:18:43;8.20;99.90
18281;DHT22;9266;51.132;17.062;2023-11-21T08:21:12;8.20;99.90
18281;DHT22;9266;51.132;17.062;2023-11-21T08:23:39;8.20;99.90
18281;DHT22;9266;51.132;17.062;2023-11-21T08:26:07;8.30;99.90
18281;DHT22;9266;51.132;17.062;2023-11-21T08:28:35;8.30;99.90
18281;DHT22;9266;51.132;17.062;2023-11-21T08:31:02;8.30;99.90
18281;DHT22;9266;51.132;17.062;2023-11-21T08:33:30;8.40;99.90
18281;DHT22;9266;51.132;17.062;2023-11-21T08:35:57;8.40;99.90
18281;DHT22;9266;51.132;17.062;2023-11-21T08:38:23;8.50;99.90
18281;DHT22;9266;51.132;17.062;2023-11-21T08:40:50;8.50;99.90
18281;DHT22;9266;51.132;17.062;2023-11-21T08:43:19;8.50;99.90
18281;DHT22;9266;51.132;17.062;2023-11-21T08:45:46;8.50;99.90
18281;DHT22;9266;51.132;17.062;2023-11-21T08:48:13;8.50;99.90
18281;DHT22;9266;51.132;17.062;2023-11-21T08:50:40;8.60;99.90
18281;DHT22;9266;51.132;17.062;2023-11-21T08:53:07;8.50;99.90
18281;DHT22;9266;51.132;17.062;2023-11-21T08:55:33;8.50;99.90
18281;DHT22;9266;51.132;17.062;2023-11-21T08:58:03;8.40;99.90
18281;DHT22;9266;51.132;17.062;2023-11-21T09:00:33;8.50;99.90
18281;DHT22;9266;51.132;17.062;2023-11-21T09:03:01;8.50;99.90
18281;DHT22;9266;51.132;17.062;2023-11-21T09:05:29;8.50;99.90
18281;DHT22;9266;51.132;17.062;2023-11-21T09:07:56;8.60;99.90
18281;DHT22;9266;51.132;17.062;2023-11-21T09:10:22;8.70;99.90
18281;DHT22;9266;51.132;17.062;2023-11-21T09:12:51;10.60;99.90
18281;DHT22;9266;51.132;17.062;2023-11-21T09:15:18;9.00;99.90
18281;DHT22;9266;51.132;17.062;2023-11-21T09:17:47;9.30;99.90
18281;DHT22;9266;51.132;17.062;2023-11-21T09:20:14;9.40;99.90
18281;DHT22;9266;51.132;17.062;2023-11-21T09:22:41;9.40;99.90
18281;DHT22;9266;51.132;17.062;2023-11-21T09:25:10;9.60;99.90
18281;DHT22;9266;51.132;17.062;2023-11-21T09:27:38;9.80;99.90
18281;DHT22;9266;51.132;17.062;2023-11-21T09:30:06;10.00;99.90
18281;DHT22;9266;51.132;17.062;2023-11-21T09:32:35;10.30;99.90
18281;DHT22;9266;51.132;17.062;2023-11-21T09:35:05;10.50;99.90
18281;DHT22;9266;51.132;17.062;2023-11-21T09:37:34;10.60;99.90
18281;DHT22;9266;51.132;17.062;2023-11-21T09:40:01;10.30;99.90
18281;DHT22;9266;51.132;17.062;2023-11-21T09:42:35;10.10;99.90
18281;DHT22;9266;51.132;17.062;2023-11-21T09:45:05;10.00;99.90
18281;DHT22;9266;51.132;17.062;2023-11-21T09:47:35;10.00;99.90
18281;DHT22;9266;51.132;17.062;2023-11-21T09:50:09;10.10;99.90
18281;DHT22;9266;51.132;17.062;2023-11-21T09:52:43;10.00;99.90
18281;DHT22;9266;51.132;17.062;2023-11-21T09:55:13;9.90;99.90
18281;DHT22;9266;51.132;17.062;2023-11-21T09:57:45;10.00;99.90
18281;DHT22;9266;51.132;17.062;2023-11-21T10:00:14;9.90;99.90
18281;DHT22;9266;51.132;17.062;2023-11-21T10:02:43;9.70;99.90
18281;DHT22;9266;51.132;17.062;2023-11-21T10:05:13;9.70;99.90
18281;DHT22;9266;51.132;17.062;2023-11-21T10:07:42;9.70;99.90
18281;DHT22;9266;51.132;17.062;2023-11-21T10:10:10;9.70;99.90
18281;DHT22;9266;51.132;17.062;2023-11-21T10:12:38;9.80;99.90
18281;DHT22;9266;51.132;17.062;2023-11-21T10:15:08;9.90;99.90
18281;DHT22;9266;51.132;17.062;2023-11-21T10:17:38;9.80;99.90
18281;DHT22;9266;51.132;17.062;2023-11-21T10:20:10;9.80;99.90
18281;DHT22;9266;51.132;17.062;2023-11-21T10:22:40;9.90;99.90
18281;DHT22;9266;51.132;17.062;2023-11-21T10:25:08;9.90;99.90
18281;DHT22;9266;51.132;17.062;2023-11-21T10:27:36;9.70;99.90
18281;DHT22;9266;51.132;17.062;2023-11-21T10:30:05;9.50;99.90
18281;DHT22;9266;51.132;17.062;2023-11-21T10:32:33;9.10;99.90
18281;DHT22;9266;51.132;17.062;2023-11-21T10:35:00;8.60;99.90
18281;DHT22;9266;51.132;17.062;2023-11-21T10:37:32;8.30;99.90
18281;DHT22;9266;51.132;17.062;2023-11-21T10:40:00;8.10;99.90
18281;DHT22;9266;51.132;17.062;2023-11-21T10:42:28;8.00;99.90
18281;DHT22;9266;51.132;17.062;2023-11-21T10:44:55;7.90;99.90
18281;DHT22;9266;51.132;17.062;2023-11-21T10:47:22;8.00;99.90
18281;DHT22;9266;51.132;17.062;2023-11-21T10:49:49;7.90;99.90
18281;DHT22;9266;51.132;17.062;2023-11-21T10:52:19;7.90;99.90
18281;DHT22;9266;51.132;17.062;2023-11-21T10:54:46;7.80;99.90
18281;DHT22;9266;51.132;17.062;2023-11-21T10:57:17;7.70;99.90
18281;DHT22;9266;51.132;17.062;2023-11-21T10:59:47;7.80;99.90
18281;DHT22;9266;51.132;17.062;2023-11-21T11:02:23;7.70;99.90
18281;DHT22;9266;51.132;17.062;2023-11-21T11:04:53;7.80;99.90
18281;DHT22;9266;51.132;17.062;2023-11-21T11:07:25;7.20;99.90
18281;DHT22;9266;51.132;17.062;2023-11-21T11:09:53;7.60;99.90
18281;DHT22;9266;51.132;17.062;2023-11-21T11:12:22;7.70;99.90
18281;DHT22;9266;51.132;17.062;2023-11-21T11:14:49;7.50;99.90
18281;DHT22;9266;51.132;17.062;2023-11-21T11:17:16;7.50;99.90
18281;DHT22;9266;51.132;17.062;2023-11-21T11:19:46;7.40;99.90
18281;DHT22;9266;51.132;17.062;2023-11-21T11:22:24;7.30;99.90
18281;DHT22;9266;51.132;17.062;2023-11-21T11:25:27;7.20;99.90
18281;DHT22;9266;51.132;17.062;2023-11-21T11:28:02;7.10;99.90
18281;DHT22;9266;51.132;17.062;2023-11-21T11:30:41;7.10;99.90
18281;DHT22;9266;51.132;17.062;2023-11-21T11:36:02;6.90;99.90
18281;DHT22;9266;51.132;17.062;2023-11-21T11:38:32;6.70;99.90
18281;DHT22;9266;51.132;17.062;2023-11-21T11:41:02;6.60;99.90
18281;DHT22;9266;51.132;17.062;2023-11-21T11:43:31;6.40;99.90
18281;DHT22;9266;51.132;17.062;2023-11-21T11:46:05;6.30;99.90
18281;DHT22;9266;51.132;17.062;2023-11-21T11:48:37;6.30;99.90
18281;DHT22;9266;51.132;17.062;2023-11-21T11:51:06;6.20;99.90
18281;DHT22;9266;51.132;17.062;2023-11-21T11:53:40;6.10;99.90
18281;DHT22;9266;51.132;17.062;2023-11-21T11:56:26;6.10;99.90
18281;DHT22;9266;51.132;17.062;2023-11-21T11:58:56;6.10;99.90
18281;DHT22;9266;51.132;17.062;2023-11-21T12:01:25;6.00;99.90
18281;DHT22;9266;51.132;17.062;2023-11-21T12:04:23;6.00;99.90
18281;DHT22;9266;51.132;17.062;2023-11-21T12:06:57;6.00;99.90
18281;DHT22;9266;51.132;17.062;2023-11-21T12:09:26;6.10;99.90
18281;DHT22;9266;51.132;17.062;2023-11-21T12:11:54;5.90;99.90
18281;DHT22;9266;51.132;17.062;2023-11-21T12:14:23;5.80;99.90
18281;DHT22;9266;51.132;17.062;2023-11-21T12:16:51;5.80;99.90
18281;DHT22;9266;51.132;17.062;2023-11-21T12:19:19;5.70;99.90
18281;DHT22;9266;51.132;17.062;2023-11-21T12:21:47;5.80;99.90
18281;DHT22;9266;51.132;17.062;2023-11-21T12:24:14;5.70;99.90
18281;DHT22;9266;51.132;17.062;2023-11-21T12:26:42;5.60;99.90
18281;DHT22;9266;51.132;17.062;2023-11-21T12:29:09;5.50;99.90
18281;DHT22;9266;51.132;17.062;2023-11-21T12:31:38;5.50;99.90
18281;DHT22;9266;51.132;17.062;2023-11-21T12:34:05;5.30;99.90
18281;DHT22;9266;51.132;17.062;2023-11-21T12:36:32;5.30;99.90
18281;DHT22;9266;51.132;17.062;2023-11-21T12:39:00;5.20;99.90
18281;DHT22;9266;51.132;17.062;2023-11-21T12:41:28;5.20;99.90
18281;DHT22;9266;51.132;17.062;2023-11-21T12:43:56;5.10;99.90
18281;DHT22;9266;51.132;17.062;2023-11-21T12:46:23;5.00;99.90
18281;DHT22;9266;51.132;17.062;2023-11-21T12:48:53;5.00;99.90
18281;DHT22;9266;51.132;17.062;2023-11-21T12:51:21;4.80;99.90
18281;DHT22;9266;51.132;17.062;2023-11-21T12:53:48;4.80;99.90
18281;DHT22;9266;51.132;17.062;2023-11-21T12:56:15;4.80;99.90
18281;DHT22;9266;51.132;17.062;2023-11-21T12:58:45;4.70;99.90
18281;DHT22;9266;51.132;17.062;2023-11-21T13:01:12;4.60;99.90
18281;DHT22;9266;51.132;17.062;2023-11-21T13:03:46;4.60;99.90
18281;DHT22;9266;51.132;17.062;2023-11-21T13:06:16;4.60;99.90
18281;DHT22;9266;51.132;17.062;2023-11-21T13:08:44;4.60;99.90
18281;DHT22;9266;51.132;17.062;2023-11-21T13:11:12;4.50;99.90
18281;DHT22;9266;51.132;17.062;2023-11-21T13:13:41;4.60;99.90
18281;DHT22;9266;51.132;17.062;2023-11-21T13:16:09;4.60;99.90
18281;DHT22;9266;51.132;17.062;2023-11-21T13:18:36;4.50;99.90
18281;DHT22;9266;51.132;17.062;2023-11-21T13:21:08;4.50;99.90
18281;DHT22;9266;51.132;17.062;2023-11-21T13:23:41;4.40;99.90
18281;DHT22;9266;51.132;17.062;2023-11-21T13:26:09;4.30;99.90
18281;DHT22;9266;51.132;17.062;2023-11-21T13:28:37;4.30;99.90
18281;DHT22;9266;51.132;17.062;2023-11-21T13:31:06;4.40;99.90
18281;DHT22;9266;51.132;17.062;2023-11-21T13:33:46;4.30;99.90
18281;DHT22;9266;51.132;17.062;2023-11-21T13:36:17;4.20;99.90
18281;DHT22;9266;51.132;17.062;2023-11-21T13:38:49;4.10;99.90
18281;DHT22;9266;51.132;17.062;2023-11-21T13:41:18;4.10;99.90
18281;DHT22;9266;51.132;17.062;2023-11-21T13:43:45;4.00;99.90
18281;DHT22;9266;51.132;17.062;2023-11-21T13:46:19;4.00;99.90
18281;DHT22;9266;51.132;17.062;2023-11-21T13:48:49;4.00;99.90
18281;DHT22;9266;51.132;17.062;2023-11-21T13:51:21;3.90;99.90
18281;DHT22;9266;51.132;17.062;2023-11-21T13:53:58;3.80;99.90
18281;DHT22;9266;51.132;17.062;2023-11-21T13:56:26;3.80;99.90
18281;DHT22;9266;51.132;17.062;2023-11-21T13:58:54;3.70;99.90
18281;DHT22;9266;51.132;17.062;2023-11-21T14:01:23;3.70;99.90
18281;DHT22;9266;51.132;17.062;2023-11-21T14:04:10;3.70;99.90
18281;DHT22;9266;51.132;17.062;2023-11-21T14:06:45;3.70;99.90
18281;DHT22;9266;51.132;17.062;2023-11-21T14:09:16;3.60;99.90
18281;DHT22;9266;51.132;17.062;2023-11-21T14:11:49;3.70;99.90
18281;DHT22;9266;51.132;17.062;2023-11-21T14:14:18;3.60;99.90
18281;DHT22;9266;51.132;17.062;2023-11-21T14:16:45;3.50;99.90
18281;DHT22;9266;51.132;17.062;2023-11-21T14:19:12;3.50;99.90
18281;DHT22;9266;51.132;17.062;2023-11-21T15:04:41;2.90;99.90
18281;DHT22;9266;51.132;17.062;2023-11-21T15:07:08;3.00;99.90
18281;DHT22;9266;51.132;17.062;2023-11-21T15:09:36;2.50;99.90
18281;DHT22;9266;51.132;17.062;2023-11-21T15:12:07;2.80;99.90
18281;DHT22;9266;51.132;17.062;2023-11-21T15:14:46;2.80;99.90
18281;DHT22;9266;51.132;17.062;2023-11-21T15:32:10;2.60;99.90
18281;DHT22;9266;51.132;17.062;2023-11-21T15:34:37;2.60;99.90
18281;DHT22;9266;51.132;17.062;2023-11-21T15:37:06;2.50;99.90
18281;DHT22;9266;51.132;17.062;2023-11-21T15:42:04;2.90;99.90
18281;DHT22;9266;51.132;17.062;2023-11-21T15:44:33;2.40;99.90
18281;DHT22;9266;51.132;17.062;2023-11-21T15:49:31;2.70;99.90
18281;DHT22;9266;51.132;17.062;2023-11-21T15:56:56;2.20;99.90
18281;DHT22;9266;51.132;17.062;2023-11-21T16:06:54;2.10;99.90
18281;DHT22;9266;51.132;17.062;2023-11-21T16:24:09;2.00;99.90
18281;DHT22;9266;51.132;17.062;2023-11-21T16:36:29;2.10;99.90
18281;DHT22;9266;51.132;17.062;2023-11-21T16:41:25;1.90;99.90
18281;DHT22;9266;51.132;17.062;2023-11-21T16:43:52;2.10;99.90
18281;DHT22;9266;51.132;17.062;2023-11-21T16:48:46;1.80;99.90
18281;DHT22;9266;51.132;17.062;2023-11-21T16:51:17;1.70;99.90
18281;DHT22;9266;51.132;17.062;2023-11-21T16:58:40;1.80;99.90
18281;DHT22;9266;51.132;17.062;2023-11-21T17:01:08;2.10;99.90
18281;DHT22;9266;51.132;17.062;2023-11-21T17:13:26;1.60;99.90
18281;DHT22;9266;51.132;17.062;2023-11-21T17:15:55;1.80;99.90
18281;DHT22;9266;51.132;17.062;2023-11-21T17:33:08;1.40;99.90
18281;DHT22;9266;51.132;17.062;2023-11-21T17:38:02;1.40;99.90
18281;DHT22;9266;51.132;17.062;2023-11-21T17:50:21;1.40;99.90
18281;DHT22;9266;51.132;17.062;2023-11-21T17:55:15;2.10;99.90
18281;DHT22;9266;51.132;17.062;2023-11-21T18:00:13;1.20;99.90
18281;DHT22;9266;51.132;17.062;2023-11-21T18:05:07;1.20;99.90
18281;DHT22;9266;51.132;17.062;2023-11-21T18:07:38;1.20;99.90
18281;DHT22;9266;51.132;17.062;2023-11-21T18:10:06;1.20;99.90
18281;DHT22;9266;51.132;17.062;2023-11-21T18:12:33;1.50;99.90
18281;DHT22;9266;51.132;17.062;2023-11-21T18:17:27;1.40;99.90
18281;DHT22;9266;51.132;17.062;2023-11-21T18:24:52;1.20;99.90
18281;DHT22;9266;51.132;17.062;2023-11-21T18:27:19;1.10;99.90
18281;DHT22;9266;51.132;17.062;2023-11-21T18:29:53;1.20;99.90
18281;DHT22;9266;51.132;17.062;2023-11-21T18:39:44;1.10;99.90
18281;DHT22;9266;51.132;17.062;2023-11-21T18:44:41;1.00;99.90
18281;DHT22;9266;51.132;17.062;2023-11-21T18:52:05;0.90;99.90